Vineland, New Jersey
Current Conditions -  °F | °C
As of 6:54 PM on Friday 24 Oct 2014 (Local Time) from KMIV Reporting Station
Clear Clear  
Wind Chill: 59°   Ceiling: Unl
Heat Index: 59°   Visibility: 10mi
Dew Point: 45°   Wind: 8mph
Humidity: 60%   Direction: 280°W
Pressure: 29.85"   Gusts: NA
Location:  39.49°N, 75.04°W
Report Text: KMIV 242254Z AUTO 28007KT 10SM CLR 15/07 A2985 RMK AO2 SLP105 T01500072
Loading
Personal Weather Stations






























Interactive Weather Map
Tropical Storm Tracking
New forecast layout! Learn more

10-Day Weather Forecast

Advertisements
Track Severe Weather on mobile